Latest Weather Observations for Brisbane

IDQ60801

Issued at 3:32 pm EST Monday 22 December 2014 (issued every 30 minutes, with the page automatically refreshed every 10 minutes)

About weather observations | Map of weather stations | Latest weather observations for QLD | Other Formats
Station Details ID: 040913 Name: BRISBANE Lat: -27.48 Lon: 153.04 Height: 8.13 m
Data from the previous 72 hours. | See also: Recent months at Brisbane
Date/Time
EST
Temp
°C
App
Temp
°C
Dew
Point
Rel
Hum
%
Delta-T
°C
Wind Press
QNH
hPa
Press
MSL
hPa
Rain
since 9 am
mm
Dir
 
Spd
km/h
Gust
km/h
Spd
kts
Gust
kts
22/03:30pm 27.3 26.5 16.0 50 6.9 E 15 22 8 12 1015.1 1015.1 0.0
22/03:00pm 26.8 25.3 16.4 53 6.4 E 19 28 10 15 1015.5 1015.5 0.0
22/02:30pm 27.2 26.2 16.5 52 6.6 E 17 30 9 16 1015.6 1015.6 0.0
22/02:00pm 27.2 26.7 16.8 53 6.5 E 15 26 8 14 1015.9 1015.9 0.0
22/01:30pm 27.2 26.5 17.4 55 6.2 E 17 28 9 15 1016.2 1016.2 0.0
22/01:00pm 27.5 27.2 16.5 51 6.8 E 13 26 7 14 1016.6 1016.6 0.0
22/12:30pm 28.4 29.2 16.3 47 7.5 ESE 7 19 4 10 1017.0 1017.0 0.0
22/12:00pm 27.5 27.1 15.2 47 7.5 ESE 11 19 6 10 1017.4 1017.4 0.0
22/11:30am 27.3 26.6 15.3 48 7.3 ESE 13 22 7 12 1017.8 1017.8 0.0
22/11:00am 27.0 26.7 15.4 49 7.0 ESE 11 17 6 9 1018.0 1018.0 0.0
22/10:30am 27.1 27.3 16.7 53 6.5 ESE 11 20 6 11 1018.0 1018.0 0.0
22/10:00am 26.1 25.8 15.5 52 6.4 ESE 11 19 6 10 1018.0 1018.0 0.0
22/09:30am 26.1 26.0 16.1 54 6.1 E 11 19 6 10 1018.0 1018.0 0.0
22/09:00am 25.5 25.8 16.1 56 5.7 ESE 9 20 5 11 1017.9 1017.9 0.0
22/08:30am 25.8 25.9 16.6 56 5.7 E 11 19 6 10 1017.9 1017.9 0.0
22/08:00am 25.5 25.9 17.2 60 5.2 E 11 19 6 10 1017.8 1017.8 0.0
22/07:30am 25.1 26.2 17.1 61 5.0 SE 7 13 4 7 1017.7 1017.7 0.0
22/07:00am 24.0 25.1 17.0 65 4.3 SE 7 13 4 7 1017.6 1017.6 0.0
22/06:30am 23.7 25.4 17.2 67 4.0 SE 4 7 2 4 1017.3 1017.3 0.0
22/06:00am 22.6 24.3 17.1 71 3.4 S 4 6 2 3 1017.1 1017.1 0.0
22/05:30am 20.9 23.1 17.5 81 2.1 SW 2 6 1 3 1017.0 1017.0 0.0
22/05:00am 18.9 21.1 16.5 86 1.4 CALM 0 0 0 0 1016.5 1016.5 0.0
22/04:30am 19.0 21.2 16.4 85 1.6 CALM 0 0 0 0 1016.1 1016.1 0.0
22/04:00am 19.3 21.5 16.5 84 1.7 CALM 0 0 0 0 1015.9 1015.9 0.0
22/03:30am 19.6 21.6 16.1 80 2.1 CALM 0 0 0 0 1015.7 1015.7 0.0
22/03:00am 20.2 22.3 16.2 78 2.4 CALM 0 0 0 0 1015.9 1015.9 0.0
22/02:30am 20.4 22.4 16.0 76 2.6 CALM 0 0 0 0 1016.0 1016.0 0.0
22/02:00am 21.0 23.1 16.2 74 2.9 CALM 0 0 0 0 1016.3 1016.3 0.0
22/01:30am 22.0 23.7 16.1 69 3.6 ESE 2 4 1 2 1016.5 1016.5 0.0
22/01:00am 22.8 23.8 16.4 67 3.9 E 6 9 3 5 1016.9 1016.9 0.0
22/12:30am 23.1 23.8 16.2 65 4.2 E 7 11 4 6 1017.2 1017.2 0.0
22/12:00am 23.3 23.7 16.4 65 4.2 E 9 15 5 8 1017.5 1017.5 0.0
 
Date/Time
EST
Temp
°C
App
Temp
°C
Dew
Point
Rel
Hum
%
Delta-T
°C
Wind Press
QNH
hPa
Press
MSL
hPa
Rain
since 9 am
mm
Dir
 
Spd
km/h
Gust
km/h
Spd
kts
Gust
kts
21/11:30pm 23.4 23.8 16.2 64 4.4 E 9 13 5 7 1018.1 1018.1 0.0
21/11:00pm 23.5 24.5 16.8 66 4.1 E 7 13 4 7 1018.4 1018.4 0.0
21/10:30pm 23.7 24.3 16.7 65 4.3 E 9 15 5 8 1018.4 1018.4 0.0
21/10:00pm 23.8 24.7 16.6 64 4.4 E 7 15 4 8 1018.2 1018.2 0.0
21/09:30pm 23.9 24.5 16.9 65 4.3 E 9 17 5 9 1017.7 1017.7 0.0
21/09:00pm 23.9 24.7 17.2 66 4.1 E 9 17 5 9 1017.7 1017.7 0.0
21/08:30pm 24.0 24.8 17.3 66 4.2 E 9 17 5 9 1017.8 1017.8 0.0
21/08:00pm 24.0 24.4 17.3 66 4.1 E 11 20 6 11 1017.7 1017.7 0.0
21/07:30pm 24.1 24.6 17.4 66 4.2 E 11 19 6 10 1017.5 1017.5 0.0
21/07:00pm 24.3 24.8 17.5 66 4.2 E 11 17 6 9 1017.1 1017.1 0.0
21/06:30pm 24.5 25.6 18.0 67 4.1 ENE 9 19 5 10 1016.6 1016.6 0.0
21/06:00pm 24.7 25.5 18.2 67 4.1 ENE 11 22 6 12 1016.1 1016.1 0.0
21/05:30pm 25.0 26.1 18.0 65 4.4 ENE 9 19 5 10 1015.9 1015.9 0.0
21/05:00pm 25.6 25.9 17.8 62 4.9 ENE 13 24 7 13 1015.7 1015.7 0.0
21/04:30pm 26.4 26.9 18.3 61 5.1 ENE 13 20 7 11 1015.4 1015.4 0.0
21/04:00pm 26.5 26.8 17.8 58 5.5 ENE 13 24 7 13 1015.4 1015.4 0.0
21/03:30pm 27.2 28.0 18.2 58 5.7 NE 11 20 6 11 1015.5 1015.5 0.0
21/03:00pm 27.4 27.6 17.6 55 6.2 NE 13 20 7 11 1015.6 1015.6 0.0
21/02:30pm 27.7 28.7 17.8 54 6.3 NE 9 22 5 12 1015.8 1015.8 0.0
21/02:00pm 27.3 28.2 18.3 58 5.7 NE 11 22 6 12 1016.1 1016.1 0.0
21/01:30pm 27.4 27.8 18.1 57 5.9 ENE 13 24 7 13 1016.3 1016.3 0.0
21/01:00pm 27.1 27.7 17.6 56 6.0 ENE 11 20 6 11 1016.6 1016.6 0.0
21/12:30pm 29.1 31.0 18.5 52 6.8 NNE 6 11 3 6 1016.8 1016.8 0.0
21/12:00pm 27.8 28.9 16.7 50 6.9 N 6 11 3 6 1017.2 1017.2 0.0
21/11:30am 27.9 29.4 18.0 55 6.3 NE 7 13 4 7 1017.5 1017.5 0.0
21/11:00am 26.6 27.6 16.8 55 6.1 NE 7 13 4 7 1017.9 1017.9 0.0
21/10:30am 26.7 28.3 17.8 58 5.6 NNE 6 9 3 5 1018.2 1018.2 0.0
21/10:00am 26.3 28.1 18.2 61 5.1 E 6 9 3 5 1018.4 1018.4 0.0
21/09:30am 25.3 27.1 17.5 62 4.9 NE 4 9 2 5 1018.4 1018.4 0.0
21/09:00am 25.0 26.3 17.2 62 4.8 NNE 6 9 3 5 1018.3 1018.3 0.0
21/08:30am 24.8 26.0 17.3 63 4.7 ENE 7 11 4 6 1018.3 1018.3 0.0
21/08:00am 25.3 27.0 18.0 64 4.6 E 6 11 3 6 1018.1 1018.1 0.0
21/07:30am 25.6 27.3 18.0 63 4.8 ENE 6 9 3 5 1017.8 1017.8 0.0
21/07:00am 23.8 25.6 18.2 71 3.5 E 6 9 3 5 1017.7 1017.7 0.0
21/06:30am 23.0 25.9 18.1 74 3.1 CALM 0 6 0 3 1017.6 1017.6 0.0
21/06:00am 22.3 24.6 17.7 75 2.8 E 2 4 1 2 1017.3 1017.3 0.0
21/05:30am 21.8 24.7 18.2 80 2.2 CALM 0 4 0 2 1017.0 1017.0 0.0
21/05:00am 21.1 23.2 17.3 79 2.3 ESE 2 4 1 2 1016.7 1016.7 0.0
21/04:30am 20.8 22.8 17.0 79 2.3 E 2 4 1 2 1016.3 1016.3 0.0
21/04:00am 21.3 23.4 17.1 77 2.6 ESE 2 4 1 2 1016.1 1016.1 0.0
21/03:30am 21.8 23.6 17.4 76 2.7 ESE 4 6 2 3 1016.0 1016.0 0.0
21/03:00am 22.1 23.9 17.5 75 2.8 E 4 6 2 3 1016.0 1016.0 0.0
21/02:30am 22.0 24.0 17.8 77 2.6 E 4 6 2 3 1016.0 1016.0 0.0
21/02:00am 21.8 24.1 17.6 77 2.6 E 2 4 1 2 1016.1 1016.1 0.0
21/01:30am 22.1 24.3 17.5 75 2.8 E 2 6 1 3 1016.3 1016.3 0.0
21/01:00am 22.3 24.2 17.7 75 2.8 E 4 7 2 4 1016.5 1016.5 0.0
21/12:30am 22.4 24.2 17.5 74 3.0 E 4 7 2 4 1016.8 1016.8 0.0
21/12:00am 22.5 24.4 17.6 74 3.0 E 4 6 2 3 1017.0 1017.0 0.0
 
Date/Time
EST
Temp
°C
App
Temp
°C
Dew
Point
Rel
Hum
%
Delta-T
°C
Wind Press
QNH
hPa
Press
MSL
hPa
Rain
since 9 am
mm
Dir
 
Spd
km/h
Gust
km/h
Spd
kts
Gust
kts
20/11:30pm 22.6 24.4 17.5 73 3.2 E 4 7 2 4 1017.0 1017.0 0.0
20/11:00pm 22.6 24.4 17.3 72 3.3 E 4 7 2 4 1017.1 1017.1 0.0
20/10:30pm 22.8 24.3 17.5 72 3.3 E 6 7 3 4 1017.3 1017.3 0.0
20/10:00pm 22.9 24.6 17.1 70 3.6 E 4 7 2 4 1017.4 1017.4 0.0
20/09:30pm 23.2 24.3 17.0 68 3.8 E 7 13 4 7 1017.4 1017.4 0.0
20/09:00pm 23.4 24.4 16.9 67 4.0 E 7 13 4 7 1017.3 1017.3 0.0
20/08:30pm 23.6 24.6 16.9 66 4.1 E 7 13 4 7 1016.9 1016.9 0.0
20/08:00pm 23.8 24.7 16.6 64 4.4 E 7 13 4 7 1016.4 1016.4 0.0
20/07:30pm 23.9 24.8 16.7 64 4.4 E 7 13 4 7 1016.0 1016.0 0.0
20/07:00pm 24.3 24.1 16.8 63 4.6 E 13 22 7 12 1015.5 1015.5 0.0
20/06:30pm 24.8 24.9 17.5 64 4.6 E 13 24 7 13 1014.9 1014.9 0.0
20/06:00pm 25.3 25.8 17.5 62 4.9 ENE 11 20 6 11 1014.7 1014.7 0.0
20/05:30pm 25.6 25.2 16.2 56 5.8 ENE 13 22 7 12 1014.4 1014.4 0.0
20/05:00pm 26.0 26.0 17.1 58 5.5 E 13 20 7 11 1013.7 1013.7 0.0
20/04:30pm 26.3 25.9 17.1 57 5.7 E 15 22 8 12 1013.4 1013.4 0.0
20/04:00pm 27.1 26.3 17.0 54 6.3 E 17 26 9 14 1013.2 1013.2 0.0
20/03:30pm 27.8 27.2 16.7 50 6.9 E 15 33 8 18 1013.1 1013.1 0.0
20/03:00pm 28.1 27.5 15.7 46 7.6 E 13 22 7 12 1013.5 1013.5 0.0
20/02:30pm 27.2 26.4 16.2 51 6.8 ESE 15 24 8 13 1014.1 1014.1 0.0
20/02:00pm 27.5 27.3 16.8 52 6.7 E 13 22 7 12 1014.1 1014.1 0.0
20/01:30pm 28.2 28.2 17.1 51 7.0 E 13 26 7 14 1014.3 1014.3 0.0
20/01:00pm 27.9 27.6 16.5 50 7.1 ESE 13 22 7 12 1014.5 1014.5 0.0
20/12:30pm 27.3 27.1 16.6 52 6.6 E 13 24 7 13 1014.8 1014.8 0.0
20/12:00pm 28.5 29.4 18.3 54 6.5 ESE 11 20 6 11 1015.0 1015.0 0.0
20/11:30am 27.2 27.3 17.4 55 6.2 E 13 24 7 13 1015.3 1015.3 0.0
20/11:00am 28.0 27.8 17.5 52 6.6 E 15 24 8 13 1015.6 1015.6 0.0
20/10:30am 28.3 28.8 18.4 55 6.3 E 13 20 7 11 1015.8 1015.8 0.0
20/10:00am 27.7 28.7 19.5 61 5.3 E 13 22 7 12 1015.8 1015.8 0.0
20/09:30am 27.7 28.7 18.7 58 5.8 E 11 22 6 12 1015.8 1015.8 0.0
20/09:00am 26.3 26.8 17.4 58 5.6 ESE 11 19 6 10 1016.0 1016.0 0.0
20/08:30am 26.1 26.8 18.0 61 5.1 SE 11 19 6 10 1015.9 1015.9 0.0
20/08:00am 26.2 27.3 18.1 61 5.1 SE 9 15 5 8 1015.9 1015.9 0.0
20/07:30am 25.7 26.4 17.9 62 4.9 ESE 11 20 6 11 1015.8 1015.8 0.0
20/07:00am 25.0 25.6 17.7 64 4.6 SE 11 24 6 13 1015.6 1015.6 0.0
20/06:30am 24.3 25.7 17.8 67 4.1 SE 7 15 4 8 1015.1 1015.1 0.0
20/06:00am 23.7 25.3 17.9 70 3.6 SSE 6 11 3 6 1014.7 1014.7 0.0
20/05:30am 22.6 24.5 17.7 74 3.0 S 4 9 2 5 1014.4 1014.4 0.0
20/05:00am 21.9 24.1 17.5 76 2.7 S 2 6 1 3 1014.1 1014.1 0.0
20/04:30am 22.1 23.9 17.5 75 2.8 SSE 4 7 2 4 1013.9 1013.9 0.0
20/04:00am 22.2 24.1 17.6 75 2.8 SE 4 6 2 3 1013.6 1013.6 0.0
20/03:30am 22.2 24.5 17.6 75 2.8 SSE 2 6 1 3 1013.5 1013.5 0.0
20/03:00am 22.4 24.2 17.5 74 3.0 SSE 4 9 2 5 1013.5 1013.5 0.0
20/02:30am 22.6 24.1 17.7 74 3.0 SE 6 9 3 5 1013.3 1013.3 0.0
20/02:00am 22.9 24.6 18.0 74 3.1 SE 6 17 3 9 1013.4 1013.4 0.0
20/01:30am 22.9 24.6 18.0 74 3.1 ESE 6 13 3 7 1013.5 1013.5 0.0
20/01:00am 23.3 25.1 18.2 73 3.2 ESE 6 15 3 8 1013.6 1013.6 0.0
20/12:30am 23.6 25.3 18.5 73 3.2 ESE 7 15 4 8 1013.9 1013.9 0.0
20/12:00am 23.9 25.9 18.8 73 3.2 ESE 6 15 3 8 1014.1 1014.1 0.0
 
Date/Time
EST
Temp
°C
App
Temp
°C
Dew
Point
Rel
Hum
%
Delta-T
°C
Wind Press
QNH
hPa
Press
MSL
hPa
Rain
since 9 am
mm
Dir
 
Spd
km/h
Gust
km/h
Spd
kts
Gust
kts
19/11:30pm 24.3 26.4 18.9 72 3.4 SE 6 13 3 7 1014.3 1014.3 0.0
19/11:00pm 24.6 26.7 19.4 73 3.3 ESE 7 17 4 9 1014.1 1014.1 0.0
19/10:30pm 24.9 26.5 19.9 74 3.2 ESE 11 26 6 14 1014.0 1014.0 0.0
19/10:00pm 25.2 27.2 20.0 73 3.4 ESE 9 17 5 9 1013.8 1013.8 0.0
19/09:30pm 25.8 27.6 18.7 65 4.5 E 7 13 4 7 1013.4 1013.4 0.0
19/09:00pm 25.5 28.3 20.5 74 3.3 ESE 6 9 3 5 1012.9 1012.9 0.0
19/08:30pm 25.7 28.6 21.1 76 3.0 E 7 13 4 7 1012.4 1012.4 0.0
19/08:00pm 26.1 28.5 21.5 76 3.1 E 11 17 6 9 1012.1 1012.1 0.0
19/07:30pm 26.3 28.0 21.7 76 3.1 E 15 28 8 15 1011.3 1011.3 0.0
19/07:00pm 27.1 30.2 21.4 71 3.8 ENE 7 11 4 6 1010.1 1010.1 0.0
19/06:30pm 28.0 30.9 21.1 66 4.6 ENE 7 11 4 6 1009.6 1009.6 0.0
19/06:00pm 29.0 31.1 20.2 59 5.8 NE 9 17 5 9 1009.2 1009.2 0.0
19/05:30pm 29.6 31.5 19.0 53 6.9 NNE 7 19 4 10 1008.9 1008.9 0.0
19/05:00pm 30.0 31.6 19.1 52 7.1 NE 9 17 5 9 1008.5 1008.5 0.0
19/04:30pm 31.0 32.3 19.4 50 7.6 NNE 11 19 6 10 1008.2 1008.2 0.0
19/04:00pm 34.6 33.6 11.1 24 13.8 WSW 7 17 4 9 1007.8 1007.8 0.0

Other Formats:

Comma delimited format used in spreadsheet applications
http://www.bom.gov.au/fwo/IDQ60801/IDQ60801.94576.axf

JavaScript Object Notation format (JSON) in row-major order
http://www.bom.gov.au/fwo/IDQ60801/IDQ60801.94576.json